• Join FlightAware (Why Join?)
  • Login
  • US Flag 
02:48PM EDT


 

Airport Tracker/Info


-or-


 

Live Flight TrackerFlight Track Log ✈ THY2186 ✈ 09-Jul-2013 ✈ LTBA / IST - LTAC / ESB

Flight Track Log - Related Links

Times and Time Zones

All times are in EDT time to prevent confusion due to time zone crossing. See the THY2186 flight status page for this flight to view local times or setup timezone preferences in your user account.

Time Position Orientation Groundspeed Altitude Reporting Facility
EDT Latitude Longitude Course Direction KTS MPH feet Rate Location/Type
04:30PM 40.8821 29.3325 104° East  Level Estimated
04:31PM 40.8580 29.4601 104° East  Level Estimated
04:32PM 40.8339 29.5876 104° East  Level Estimated
04:33PM 40.8095 29.7150 104° East  Level Estimated
04:34PM 40.7850 29.8424 104° East  Level Estimated
04:35PM 40.7604 29.9696 104° East  Level Estimated
04:36PM 40.7357 30.0967 104° East  Level Estimated
04:37PM 40.7108 30.2238 104° East  Level Estimated
04:38PM 40.6857 30.3507 105° East  Level Estimated
04:39PM 40.6606 30.4776 105° East  Level Estimated
04:40PM 40.6353 30.6043 105° East  Level Estimated
04:41PM 40.6098 30.7310 105° East  Level Estimated
04:42PM 40.5842 30.8576 105° East  Level Estimated
04:43PM 40.5585 30.9841 105° East  Level Estimated
04:44PM 40.5326 31.1104 105° East  Level Estimated
04:45PM 40.5066 31.2367 105° East  Level Estimated
04:46PM 40.4805 31.3629 105° East  Level Estimated
04:47PM 40.4542 31.4890 105° East  Level Estimated
04:48PM 40.4278 31.6149 105° East  Level Estimated
04:49PM 40.4013 31.7408 105° East  Level Estimated
04:50PM 40.3746 31.8666 106° East  Level Estimated
04:51PM 40.3478 31.9923 106° East  Level Estimated
04:52PM 40.3208 32.1179 106° East  Level Estimated
04:53PM 40.2937 32.2433 106° East  Level Estimated
04:54PM 40.2665 32.3687 106° East  Level Estimated
04:55PM 40.2391 32.4940 106° East  Level Estimated
04:56PM 40.2116 32.6192 106° East  Level Estimated
04:57PM 40.1840 32.7443 106° East  Level Estimated
04:58PM 40.1562 32.8692 106° East  Level Estimated
04:59PM 40.1283 32.9941 106° East  Level Estimated
05:00PM 40.1281 32.9951 106° East  Level Estimated
05:01PM 40.1281 32.9951 49° Northeast  Level Estimated
05:02PM 40.1281 32.9951 49° Northeast  Level Estimated
05:03PM 40.1281 32.9951 49° Northeast  Level Estimated
05:04PM 40.1281 32.9951 49° Northeast  Level Estimated
05:05PM 40.1281 32.9951 49° Northeast  Level Estimated
05:06PM 40.1281 32.9951 49° Northeast  Level Estimated
05:07PM 40.1281 32.9951 49° Northeast  Level Estimated
05:08PM 40.1281 32.9951 49° Northeast  Level Estimated
05:09PM 40.1281 32.9951 49° Northeast  Level Estimated
05:10PM 40.1281 32.9951 49° Northeast  Level Estimated
05:11PM 40.1281 32.9951 49° Northeast  Level Estimated
05:12PM 40.1281 32.9951 49° Northeast  Level Estimated
05:13PM 40.1281 32.9951 49° Northeast  Level Estimated
05:14PM 40.1281 32.9951 49° Northeast  Level Estimated
05:15PM 40.1281 32.9951 49° Northeast  Level Estimated